Time;durP1;ratioP1;P1;durP2;ratioP2;P2;SDS_P1;SDS_P2;PMS_P1;PMS_P2;Temp;Humidity;BMP_temperature;BMP_pressure;BME280_temperature;BME280_humidity;BME280_pressure;Samples;Min_cycle;Max_cycle;Signal;HPM_P1;HPM_P2
2021/09/29 00:00:35;;;;;;;29.35;26.25;;;;;;;;;;4999385;28;20034;-76
2021/09/29 00:03:03;;;;;;;29.92;26.63;;;;;;;;;;5012989;28;20029;-76
2021/09/29 00:05:29;;;;;;;30.90;27.63;;;;;;;;;;5015033;28;20148;-76
2021/09/29 00:07:55;;;;;;;29.35;26.38;;;;;;;;;;5012328;28;20026;-77
2021/09/29 00:10:21;;;;;;;30.25;27.05;;;;;;;;;;5001887;28;20026;-75
2021/09/29 00:12:47;;;;;;;31.05;27.27;;;;;;;;;;5009375;28;20476;-75
2021/09/29 00:15:14;;;;;;;29.25;24.95;;;;;;;;;;5012725;28;20488;-75
2021/09/29 00:17:43;;;;;;;32.88;28.45;;;;;;;;;;5006923;28;20117;-75
2021/09/29 00:20:10;;;;;;;28.88;25.52;;;;;;;;;;5012408;28;20022;-78
2021/09/29 00:22:36;;;;;;;30.40;27.10;;;;;;;;;;5006174;28;21514;-76
2021/09/29 00:25:04;;;;;;;29.55;26.40;;;;;;;;;;5011061;28;20105;-77
2021/09/29 00:27:30;;;;;;;30.88;26.25;;;;;;;;;;5014625;28;20022;-73
2021/09/29 00:30:04;;;;;;;31.60;26.70;;;;;;;;;;5002487;28;20501;-76
2021/09/29 00:32:34;;;;;;;29.10;25.77;;;;;;;;;;5011945;28;20029;-77
2021/09/29 00:35:00;;;;;;;29.45;26.27;;;;;;;;;;5013924;28;20052;-76
2021/09/29 00:37:26;;;;;;;32.20;26.88;;;;;;;;;;5010168;28;20025;-74
2021/09/29 00:39:52;;;;;;;29.85;26.65;;;;;;;;;;5010251;28;20117;-73
2021/09/29 00:42:18;;;;;;;28.60;25.60;;;;;;;;;;5010906;28;20509;-73
2021/09/29 00:44:45;;;;;;;29.30;25.92;;;;;;;;;;5007331;28;20397;-72
2021/09/29 00:47:11;;;;;;;30.70;26.65;;;;;;;;;;4998806;28;20042;-73
2021/09/29 00:49:38;;;;;;;30.05;25.98;;;;;;;;;;4997032;28;20038;-76
2021/09/29 00:52:04;;;;;;;28.23;24.77;;;;;;;;;;5000370;28;20026;-77
2021/09/29 00:54:32;;;;;;;32.25;27.45;;;;;;;;;;5011841;28;20121;-74
2021/09/29 00:56:58;;;;;;;30.27;26.55;;;;;;;;;;5009950;28;20109;-76
2021/09/29 00:59:24;;;;;;;27.13;24.10;;;;;;;;;;5010335;28;20561;-72
2021/09/29 01:01:51;;;;;;;27.98;24.95;;;;;;;;;;5009711;28;20061;-76
2021/09/29 01:04:17;;;;;;;27.67;24.85;;;;;;;;;;5012333;28;20077;-77
2021/09/29 01:06:50;;;;;;;28.45;24.80;;;;;;;;;;5000650;28;20547;-77
2021/09/29 01:09:17;;;;;;;26.33;23.55;;;;;;;;;;5009378;28;20428;-75
2021/09/29 01:11:44;;;;;;;30.08;26.88;;;;;;;;;;5012601;28;20100;-75
2021/09/29 01:14:15;;;;;;;30.15;26.90;;;;;;;;;;5009852;28;20035;-75
2021/09/29 01:16:42;;;;;;;31.23;27.42;;;;;;;;;;5006977;28;20026;-75
2021/09/29 01:19:16;;;;;;;31.23;27.75;;;;;;;;;;5012804;28;20038;-79
2021/09/29 01:21:48;;;;;;;31.27;27.98;;;;;;;;;;5009730;28;20092;-77
2021/09/29 01:24:23;;;;;;;31.50;27.75;;;;;;;;;;5009596;28;20026;-75
2021/09/29 01:26:50;;;;;;;29.55;26.23;;;;;;;;;;5014456;28;20116;-77
2021/09/29 01:29:19;;;;;;;32.70;27.95;;;;;;;;;;5004757;28;20053;-75
2021/09/29 01:31:46;;;;;;;29.55;26.25;;;;;;;;;;5004382;28;20450;-75
2021/09/29 01:34:12;;;;;;;31.00;26.20;;;;;;;;;;5011451;28;20034;-75
2021/09/29 01:36:39;;;;;;;29.08;25.85;;;;;;;;;;5001564;28;20033;-77
2021/09/29 01:39:09;;;;;;;29.38;25.08;;;;;;;;;;5009282;28;20365;-73
2021/09/29 01:41:35;;;;;;;28.52;25.00;;;;;;;;;;5007196;28;20506;-74
2021/09/29 01:44:01;;;;;;;28.30;25.20;;;;;;;;;;5009142;28;20121;-73
2021/09/29 01:46:29;;;;;;;28.58;25.58;;;;;;;;;;5003172;28;20034;-75
2021/09/29 01:48:55;;;;;;;32.88;26.98;;;;;;;;;;5012762;28;20065;-73
2021/09/29 01:51:21;;;;;;;32.05;26.65;;;;;;;;;;5002459;28;20023;-72
2021/09/29 01:53:48;;;;;;;33.90;28.58;;;;;;;;;;5014297;28;20042;-75
2021/09/29 01:56:16;;;;;;;37.72;30.65;;;;;;;;;;5012016;28;20534;-74
2021/09/29 01:58:42;;;;;;;32.22;28.30;;;;;;;;;;5000878;28;20045;-75
2021/09/29 02:01:08;;;;;;;34.70;29.80;;;;;;;;;;5000018;28;20034;-75
2021/09/29 02:03:35;;;;;;;32.95;28.77;;;;;;;;;;5011635;28;20030;-77
2021/09/29 02:06:01;;;;;;;37.05;29.90;;;;;;;;;;5012309;28;20092;-75
2021/09/29 02:08:27;;;;;;;40.15;32.25;;;;;;;;;;5004497;28;20026;-75
2021/09/29 02:10:53;;;;;;;35.08;30.08;;;;;;;;;;5013059;28;20034;-73
2021/09/29 02:13:19;;;;;;;36.70;31.02;;;;;;;;;;5009564;28;20038;-75
2021/09/29 02:15:45;;;;;;;34.53;30.83;;;;;;;;;;5004906;28;20033;-74
2021/09/29 02:18:11;;;;;;;35.75;31.92;;;;;;;;;;5008843;28;20026;-74
2021/09/29 02:20:38;;;;;;;38.75;33.03;;;;;;;;;;5010841;28;20034;-75
2021/09/29 02:23:04;;;;;;;37.40;32.00;;;;;;;;;;5014000;28;20037;-75
2021/09/29 02:25:30;;;;;;;37.75;33.38;;;;;;;;;;5003940;28;20036;-75
2021/09/29 02:27:56;;;;;;;38.38;33.15;;;;;;;;;;5014677;28;20034;-76
2021/09/29 02:30:22;;;;;;;37.15;32.35;;;;;;;;;;5010469;28;20017;-75
2021/09/29 02:32:49;;;;;;;36.30;31.92;;;;;;;;;;5015105;28;20444;-75
2021/09/29 02:35:17;;;;;;;37.25;31.88;;;;;;;;;;5003032;28;20030;-74
2021/09/29 02:37:43;;;;;;;34.65;30.75;;;;;;;;;;5012800;28;20030;-75
2021/09/29 02:40:10;;;;;;;35.03;30.95;;;;;;;;;;5004289;28;20080;-75
2021/09/29 02:42:36;;;;;;;39.25;32.33;;;;;;;;;;5014248;28;20072;-76
2021/09/29 02:45:03;;;;;;;41.03;33.00;;;;;;;;;;5011863;28;20542;-75
2021/09/29 02:47:29;;;;;;;34.50;29.73;;;;;;;;;;5010853;28;20117;-75
2021/09/29 02:49:55;;;;;;;37.35;32.38;;;;;;;;;;5008276;28;20053;-75
2021/09/29 02:52:21;;;;;;;35.95;31.17;;;;;;;;;;5002990;28;20034;-75
2021/09/29 02:54:47;;;;;;;39.25;32.78;;;;;;;;;;4991173;28;20499;-75
2021/09/29 02:57:13;;;;;;;37.35;32.22;;;;;;;;;;5007402;28;20485;-73
2021/09/29 02:59:39;;;;;;;36.70;31.13;;;;;;;;;;4997395;28;20034;-75
2021/09/29 03:02:06;;;;;;;42.97;34.17;;;;;;;;;;5003883;28;20021;-77
2021/09/29 03:04:32;;;;;;;40.40;34.53;;;;;;;;;;5001498;28;20041;-75
2021/09/29 03:06:58;;;;;;;37.28;31.75;;;;;;;;;;5010925;28;20025;-75
2021/09/29 03:09:24;;;;;;;38.35;33.05;;;;;;;;;;4993281;28;20036;-75
2021/09/29 03:11:50;;;;;;;39.22;32.92;;;;;;;;;;5010547;28;20492;-75
2021/09/29 03:14:16;;;;;;;40.35;34.00;;;;;;;;;;5007383;28;20042;-75
2021/09/29 03:16:42;;;;;;;40.47;34.58;;;;;;;;;;5007644;28;20033;-73
2021/09/29 03:19:08;;;;;;;38.10;33.30;;;;;;;;;;5008052;28;20501;-75
2021/09/29 03:21:34;;;;;;;40.97;35.00;;;;;;;;;;5005263;28;20277;-75
2021/09/29 03:24:00;;;;;;;36.22;31.60;;;;;;;;;;5010347;28;20029;-75
2021/09/29 03:26:26;;;;;;;34.90;31.17;;;;;;;;;;5011973;28;20062;-73
2021/09/29 03:28:52;;;;;;;33.05;29.45;;;;;;;;;;5008303;28;20019;-75
2021/09/29 03:31:19;;;;;;;40.72;34.70;;;;;;;;;;5010617;28;20034;-75
2021/09/29 03:33:45;;;;;;;42.72;35.75;;;;;;;;;;5006262;28;20034;-74
2021/09/29 03:36:11;;;;;;;47.88;40.08;;;;;;;;;;5004404;28;20030;-75
2021/09/29 03:38:37;;;;;;;45.03;38.28;;;;;;;;;;5001821;28;20132;-74
2021/09/29 03:41:03;;;;;;;47.15;38.67;;;;;;;;;;5015076;28;20115;-75
2021/09/29 03:43:29;;;;;;;46.70;38.60;;;;;;;;;;5014077;28;20030;-73
2021/09/29 03:45:55;;;;;;;48.53;40.38;;;;;;;;;;5002793;28;20546;-74
2021/09/29 03:48:22;;;;;;;54.05;41.30;;;;;;;;;;4998519;28;20503;-75
2021/09/29 03:50:48;;;;;;;48.28;38.08;;;;;;;;;;5007848;28;20034;-73
2021/09/29 03:53:14;;;;;;;55.95;43.08;;;;;;;;;;5014056;28;20034;-75
2021/09/29 03:55:40;;;;;;;54.30;43.25;;;;;;;;;;5013444;28;20101;-75
2021/09/29 03:58:06;;;;;;;58.72;46.35;;;;;;;;;;5012154;28;20106;-74
2021/09/29 04:00:32;;;;;;;57.22;43.55;;;;;;;;;;5013077;28;20122;-75
2021/09/29 04:02:58;;;;;;;54.58;43.45;;;;;;;;;;5013988;28;20116;-74
2021/09/29 04:05:24;;;;;;;56.05;44.08;;;;;;;;;;5013904;28;20022;-74
2021/09/29 04:07:50;;;;;;;57.80;45.20;;;;;;;;;;5003260;28;20030;-73
2021/09/29 04:10:16;;;;;;;60.45;46.80;;;;;;;;;;5011416;28;20375;-75
2021/09/29 04:12:43;;;;;;;56.08;44.78;;;;;;;;;;5007892;28;20034;-75
2021/09/29 04:15:09;;;;;;;63.53;48.03;;;;;;;;;;5011544;28;20583;-74
2021/09/29 04:17:37;;;;;;;63.13;47.35;;;;;;;;;;5010409;28;20030;-74
2021/09/29 04:20:03;;;;;;;62.60;47.88;;;;;;;;;;5010562;28;20062;-75
2021/09/29 04:22:31;;;;;;;61.40;46.90;;;;;;;;;;5004451;28;20027;-75
2021/09/29 04:24:57;;;;;;;63.75;46.88;;;;;;;;;;5007109;28;20026;-76
2021/09/29 04:27:24;;;;;;;57.88;44.45;;;;;;;;;;5011451;28;20187;-75
2021/09/29 04:29:50;;;;;;;54.50;42.20;;;;;;;;;;5001096;28;20023;-75
2021/09/29 04:32:16;;;;;;;55.30;43.58;;;;;;;;;;5007728;28;20042;-75
2021/09/29 04:34:42;;;;;;;51.42;41.88;;;;;;;;;;5012254;28;20085;-75
2021/09/29 04:37:08;;;;;;;56.08;43.97;;;;;;;;;;5008634;28;20030;-71
2021/09/29 04:39:34;;;;;;;62.55;47.33;;;;;;;;;;5013518;28;20026;-73
2021/09/29 04:42:00;;;;;;;62.80;44.72;;;;;;;;;;5012063;28;20018;-78
2021/09/29 04:44:28;;;;;;;62.08;46.45;;;;;;;;;;5003154;28;20022;-73
2021/09/29 04:46:54;;;;;;;63.70;46.35;;;;;;;;;;5009518;28;20173;-78
2021/09/29 04:49:20;;;;;;;70.78;50.45;;;;;;;;;;5011702;28;20025;-74
2021/09/29 04:51:47;;;;;;;54.38;43.45;;;;;;;;;;5012581;28;20391;-69
2021/09/29 04:54:13;;;;;;;65.47;49.08;;;;;;;;;;5010468;28;20034;-72
2021/09/29 04:56:41;;;;;;;66.70;48.83;;;;;;;;;;5004621;28;20026;-71
2021/09/29 04:59:07;;;;;;;55.78;42.33;;;;;;;;;;5008928;28;20026;-72
2021/09/29 05:01:35;;;;;;;58.13;42.92;;;;;;;;;;5010660;28;20036;-83
2021/09/29 05:04:01;;;;;;;59.97;45.50;;;;;;;;;;4999007;28;20022;-71
2021/09/29 05:06:28;;;;;;;56.00;44.75;;;;;;;;;;5012721;28;20110;-71
2021/09/29 05:08:54;;;;;;;61.17;46.47;;;;;;;;;;5013938;28;20113;-72
2021/09/29 05:11:24;;;;;;;61.33;47.05;;;;;;;;;;5010318;28;20037;-72
2021/09/29 05:13:50;;;;;;;66.82;48.00;;;;;;;;;;5005742;28;20037;-73
2021/09/29 05:16:16;;;;;;;69.63;48.90;;;;;;;;;;5014233;28;20024;-76
2021/09/29 05:18:42;;;;;;;66.55;48.78;;;;;;;;;;4997112;28;20479;-79
2021/09/29 05:21:08;;;;;;;74.03;51.70;;;;;;;;;;5010690;28;20037;-72
2021/09/29 05:23:36;;;;;;;67.65;48.35;;;;;;;;;;5013800;28;20053;-76
2021/09/29 05:26:02;;;;;;;64.00;47.03;;;;;;;;;;4997762;28;20136;-67
2021/09/29 05:28:30;;;;;;;64.70;48.70;;;;;;;;;;5016448;28;20023;-74
2021/09/29 05:30:56;;;;;;;67.65;46.08;;;;;;;;;;5007326;28;20026;-69
2021/09/29 05:33:22;;;;;;;65.32;48.33;;;;;;;;;;5008683;28;20045;-68
2021/09/29 05:35:49;;;;;;;66.85;47.60;;;;;;;;;;5008381;28;20075;-72
2021/09/29 05:38:15;;;;;;;68.38;49.40;;;;;;;;;;5011746;28;20026;-69
2021/09/29 05:40:41;;;;;;;67.50;49.80;;;;;;;;;;5014124;28;20022;-69
2021/09/29 05:43:07;;;;;;;69.95;49.17;;;;;;;;;;5007918;28;20018;-70
2021/09/29 05:45:33;;;;;;;65.28;46.45;;;;;;;;;;5011884;28;20037;-70
2021/09/29 05:48:03;;;;;;;69.15;48.63;;;;;;;;;;5011564;28;20049;-70
2021/09/29 05:50:29;;;;;;;66.43;47.22;;;;;;;;;;5012887;28;20069;-74
2021/09/29 05:52:56;;;;;;;53.95;43.53;;;;;;;;;;5010491;28;20025;-72
2021/09/29 05:55:22;;;;;;;58.88;43.58;;;;;;;;;;5014099;28;20069;-76
2021/09/29 05:57:48;;;;;;;66.05;46.08;;;;;;;;;;5007097;28;20030;-74
2021/09/29 06:00:14;;;;;;;58.60;43.58;;;;;;;;;;5020354;28;20037;-77
2021/09/29 06:02:41;;;;;;;53.08;40.72;;;;;;;;;;5016612;28;20113;-75
2021/09/29 06:05:07;;;;;;;58.35;42.38;;;;;;;;;;5016456;28;20025;-73
2021/09/29 06:07:33;;;;;;;55.75;40.70;;;;;;;;;;5011510;28;20030;-77
2021/09/29 06:09:59;;;;;;;52.85;40.78;;;;;;;;;;5019580;28;20029;-73
2021/09/29 06:12:25;;;;;;;58.50;41.63;;;;;;;;;;5010011;28;20030;-76
2021/09/29 06:14:54;;;;;;;61.97;41.35;;;;;;;;;;4993700;28;20038;-77
2021/09/29 06:17:24;;;;;;;68.00;42.47;;;;;;;;;;5005924;28;20049;-70
2021/09/29 06:19:52;;;;;;;70.97;44.28;;;;;;;;;;5009133;28;20041;-71
2021/09/29 06:22:19;;;;;;;74.60;46.03;;;;;;;;;;5008422;28;20483;-73
2021/09/29 06:24:45;;;;;;;78.60;47.00;;;;;;;;;;5009448;28;20503;-71
2021/09/29 06:27:11;;;;;;;75.97;46.25;;;;;;;;;;5009205;28;20022;-73
2021/09/29 06:29:56;;;;;;;80.38;46.63;;;;;;;;;;5020163;28;20034;-80
2021/09/29 06:32:36;;;;;;;77.55;47.03;;;;;;;;;;5026753;28;20026;-78
2021/09/29 06:35:25;;;;;;;95.07;50.30;;;;;;;;;;5016063;28;20034;-78
2021/09/29 06:37:53;;;;;;;87.03;50.08;;;;;;;;;;5017007;28;20022;-75
2021/09/29 06:40:22;;;;;;;96.25;50.20;;;;;;;;;;5019250;28;20066;-79
2021/09/29 06:43:07;;;;;;;92.82;50.08;;;;;;;;;;4977047;28;20036;-77
2021/09/29 06:45:34;;;;;;;86.47;48.90;;;;;;;;;;5014788;28;20038;-74
2021/09/29 06:48:00;;;;;;;73.55;43.65;;;;;;;;;;5010368;28;20056;-77
2021/09/29 06:50:26;;;;;;;72.82;44.63;;;;;;;;;;5009856;28;20054;-75
2021/09/29 06:52:53;;;;;;;69.30;42.22;;;;;;;;;;5010869;28;20045;-71
2021/09/29 06:55:19;;;;;;;60.25;40.08;;;;;;;;;;4991806;28;20046;-71
2021/09/29 06:57:45;;;;;;;60.88;39.70;;;;;;;;;;5010317;28;20380;-71
2021/09/29 07:00:13;;;;;;;59.22;36.60;;;;;;;;;;4994172;28;20385;-71
2021/09/29 07:02:46;;;;;;;50.70;34.65;;;;;;;;;;5006108;28;20026;-70
2021/09/29 07:05:13;;;;;;;52.13;33.70;;;;;;;;;;5009793;28;20393;-72
2021/09/29 07:07:39;;;;;;;52.03;34.10;;;;;;;;;;5010983;28;20032;-74
2021/09/29 07:10:07;;;;;;;48.63;31.17;;;;;;;;;;5007403;28;20026;-75
2021/09/29 07:12:34;;;;;;;46.90;30.88;;;;;;;;;;4996833;28;20115;-74
2021/09/29 07:15:00;;;;;;;45.58;29.35;;;;;;;;;;5013413;28;20041;-73
2021/09/29 07:17:27;;;;;;;48.20;31.30;;;;;;;;;;5008843;28;20148;-72
2021/09/29 07:19:57;;;;;;;43.00;29.83;;;;;;;;;;5003631;28;20042;-73
2021/09/29 07:22:24;;;;;;;43.65;28.80;;;;;;;;;;5006747;28;20105;-77
2021/09/29 07:24:50;;;;;;;43.38;28.60;;;;;;;;;;5011960;28;20022;-73
2021/09/29 07:27:20;;;;;;;41.42;28.38;;;;;;;;;;5006056;28;20023;-77
2021/09/29 07:29:49;;;;;;;40.17;30.07;;;;;;;;;;4991449;28;20468;-79
2021/09/29 07:32:15;;;;;;;38.63;27.92;;;;;;;;;;5016816;28;20306;-82
2021/09/29 07:34:41;;;;;;;39.58;27.38;;;;;;;;;;4991486;28;20034;-76
2021/09/29 07:37:07;;;;;;;41.83;28.25;;;;;;;;;;5009299;28;20429;-82
2021/09/29 07:39:33;;;;;;;39.40;25.65;;;;;;;;;;5011678;28;20030;-81
2021/09/29 07:41:59;;;;;;;31.80;25.17;;;;;;;;;;5012929;28;20353;-77
2021/09/29 07:44:25;;;;;;;33.92;26.23;;;;;;;;;;5001928;28;20105;-76
2021/09/29 07:46:51;;;;;;;38.35;27.25;;;;;;;;;;5008359;28;20042;-78
2021/09/29 07:49:21;;;;;;;37.38;26.83;;;;;;;;;;5008540;28;20034;-81
2021/09/29 07:51:47;;;;;;;37.55;27.02;;;;;;;;;;5012749;28;20018;-85
2021/09/29 07:54:14;;;;;;;35.40;26.63;;;;;;;;;;5008212;28;20158;-73
2021/09/29 07:56:40;;;;;;;33.72;24.90;;;;;;;;;;5007201;28;20020;-74
2021/09/29 07:59:06;;;;;;;32.22;24.27;;;;;;;;;;5009763;28;20022;-78
2021/09/29 08:01:32;;;;;;;30.73;23.85;;;;;;;;;;5009330;28;20101;-71
2021/09/29 08:03:58;;;;;;;33.35;24.08;;;;;;;;;;5008816;28;20022;-71
2021/09/29 08:06:24;;;;;;;35.05;23.40;;;;;;;;;;5010319;28;20026;-71
2021/09/29 08:08:52;;;;;;;31.92;23.42;;;;;;;;;;5010129;28;20037;-72
2021/09/29 08:11:18;;;;;;;36.47;23.98;;;;;;;;;;5010392;28;20022;-73
2021/09/29 08:13:47;;;;;;;29.95;22.77;;;;;;;;;;5011801;28;20388;-80
2021/09/29 08:16:13;;;;;;;30.25;23.45;;;;;;;;;;5011571;28;20435;-77
2021/09/29 08:18:39;;;;;;;30.38;22.83;;;;;;;;;;5006359;28;20388;-74
2021/09/29 08:21:09;;;;;;;30.08;22.45;;;;;;;;;;5013574;28;20088;-75
2021/09/29 08:23:38;;;;;;;32.97;21.58;;;;;;;;;;5014447;28;20040;-72
2021/09/29 08:31:03;;;;;;;31.85;19.90;;;;;;;;;;5011530;28;20022;-74
2021/09/29 08:36:18;;;;;;;27.63;19.80;;;;;;;;;;5011221;28;20057;-73
2021/09/29 08:41:54;;;;;;;24.85;18.38;;;;;;;;;;5011837;28;20503;-72
2021/09/29 08:44:31;;;;;;;26.40;18.42;;;;;;;;;;5012009;28;20033;-74
2021/09/29 08:48:04;;;;;;;23.88;17.77;;;;;;;;;;5010914;28;20527;-72
2021/09/29 08:58:05;;;;;;;35.63;20.60;;;;;;;;;;5010310;28;20041;-77
2021/09/29 09:17:04;;;;;;;20.67;16.23;;;;;;;;;;5009058;28;20489;-75
2021/09/29 09:19:31;;;;;;;26.60;16.55;;;;;;;;;;5010251;28;20152;-78
2021/09/29 09:21:59;;;;;;;21.27;16.13;;;;;;;;;;5013408;28;20029;-80
2021/09/29 09:24:28;;;;;;;20.95;16.85;;;;;;;;;;5015180;28;20026;-76
2021/09/29 09:26:56;;;;;;;24.70;15.43;;;;;;;;;;5013380;28;20105;-75
2021/09/29 09:29:22;;;;;;;18.92;14.80;;;;;;;;;;5011733;28;20057;-75
2021/09/29 09:31:49;;;;;;;23.17;15.32;;;;;;;;;;5007502;28;20044;-74
2021/09/29 09:34:15;;;;;;;19.60;15.57;;;;;;;;;;5013049;28;20038;-84
2021/09/29 09:36:43;;;;;;;22.13;15.73;;;;;;;;;;5013504;28;20547;-80
2021/09/29 09:39:12;;;;;;;20.15;14.55;;;;;;;;;;4995731;28;20029;-83
2021/09/29 09:41:44;;;;;;;18.80;13.95;;;;;;;;;;5011172;28;20018;-78
2021/09/29 09:44:10;;;;;;;21.17;16.25;;;;;;;;;;5010856;28;20049;-79
2021/09/29 09:46:36;;;;;;;19.08;15.25;;;;;;;;;;5012971;28;20041;-78
2021/09/29 09:49:09;;;;;;;21.42;15.57;;;;;;;;;;5013069;28;20050;-74
2021/09/29 09:51:49;;;;;;;18.75;15.05;;;;;;;;;;5011527;28;20084;-75
2021/09/29 09:54:15;;;;;;;22.75;14.63;;;;;;;;;;5009042;28;20243;-69
2021/09/29 09:56:45;;;;;;;19.67;14.23;;;;;;;;;;5011656;28;20395;-70
2021/09/29 09:59:12;;;;;;;15.85;12.90;;;;;;;;;;5007383;28;20036;-71
2021/09/29 10:01:41;;;;;;;20.75;14.35;;;;;;;;;;5010462;28;20056;-71
2021/09/29 10:04:12;;;;;;;17.20;13.10;;;;;;;;;;5011268;28;20030;-77
2021/09/29 10:06:38;;;;;;;15.15;12.07;;;;;;;;;;5010154;28;20138;-80
2021/09/29 10:09:33;;;;;;;17.13;12.93;;;;;;;;;;5012174;28;20072;-80
2021/09/29 10:12:02;;;;;;;18.67;12.60;;;;;;;;;;5011857;28;20550;-82
2021/09/29 10:28:09;;;;;;;12.20;10.23;;;;;;;;;;5010902;28;20028;-72
2021/09/29 10:30:51;;;;;;;18.52;10.50;;;;;;;;;;5012091;28;20038;-73
2021/09/29 10:33:25;;;;;;;20.08;10.73;;;;;;;;;;5012212;28;20025;-74
2021/09/29 10:36:21;;;;;;;17.17;12.25;;;;;;;;;;5012244;28;20164;-73
2021/09/29 11:08:42;;;;;;;18.95;10.98;;;;;;;;;;4944709;29;20109;-73
2021/09/29 11:30:33;;;;;;;14.38;11.43;;;;;;;;;;4913483;29;20476;-77
2021/09/29 12:11:15;;;;;;;16.65;10.25;;;;;;;;;;4952071;28;20039;-73
2021/09/29 12:13:47;;;;;;;24.30;10.10;;;;;;;;;;4933327;29;20043;-78
2021/09/29 12:16:25;;;;;;;12.30;9.30;;;;;;;;;;4949851;28;20067;-71
2021/09/29 12:18:54;;;;;;;13.30;9.15;;;;;;;;;;4951988;29;20398;-75
2021/09/29 12:21:30;;;;;;;11.60;9.02;;;;;;;;;;4949595;29;20148;-77
2021/09/29 12:23:57;;;;;;;16.90;9.55;;;;;;;;;;4951558;29;20571;-82
2021/09/29 12:26:26;;;;;;;14.52;9.70;;;;;;;;;;4952699;29;20074;-77
2021/09/29 12:29:13;;;;;;;14.15;9.60;;;;;;;;;;4975432;28;20037;-77
2021/09/29 12:34:22;;;;;;;12.43;8.57;;;;;;;;;;5013393;28;20048;-75
2021/09/29 12:36:48;;;;;;;14.15;9.75;;;;;;;;;;5007283;28;20492;-80
2021/09/29 12:39:18;;;;;;;12.05;8.95;;;;;;;;;;5011191;28;20022;-77
2021/09/29 12:41:51;;;;;;;10.35;8.15;;;;;;;;;;5010121;28;20109;-78
2021/09/29 12:44:18;;;;;;;12.13;7.85;;;;;;;;;;5010594;28;20484;-74
2021/09/29 12:46:50;;;;;;;13.05;8.60;;;;;;;;;;5012793;28;20034;-80
2021/09/29 12:49:21;;;;;;;12.27;7.25;;;;;;;;;;4993415;28;20060;-75
2021/09/29 12:51:59;;;;;;;14.98;7.60;;;;;;;;;;5010168;28;20077;-75
2021/09/29 12:54:25;;;;;;;11.32;8.18;;;;;;;;;;5012127;28;20032;-76
2021/09/29 12:56:52;;;;;;;13.02;8.30;;;;;;;;;;5013023;28;20029;-75
2021/09/29 12:59:18;;;;;;;10.15;7.72;;;;;;;;;;5011752;28;20069;-82
2021/09/29 13:01:44;;;;;;;13.27;8.32;;;;;;;;;;5010160;28;20084;-77
2021/09/29 13:04:10;;;;;;;16.83;7.97;;;;;;;;;;5008865;28;20045;-71
2021/09/29 13:06:36;;;;;;;22.17;8.02;;;;;;;;;;5012526;28;20088;-71
2021/09/29 13:09:02;;;;;;;8.60;6.85;;;;;;;;;;5013926;28;20072;-73
2021/09/29 13:11:28;;;;;;;8.70;6.72;;;;;;;;;;5010269;28;20022;-72
2021/09/29 13:13:54;;;;;;;12.20;7.68;;;;;;;;;;4992029;28;20041;-74
2021/09/29 13:16:20;;;;;;;10.00;6.90;;;;;;;;;;5000588;28;20504;-76
2021/09/29 13:19:12;;;;;;;10.20;6.43;;;;;;;;;;5012527;28;20148;-70
2021/09/29 13:21:42;;;;;;;10.57;6.38;;;;;;;;;;5008160;28;20080;-67
2021/09/29 13:27:22;;;;;;;12.52;6.35;;;;;;;;;;4970887;28;20178;-68
2021/09/29 13:36:33;;;;;;;9.13;6.05;;;;;;;;;;4970074;28;20218;-70
2021/09/29 13:38:15;;;;;;;7.85;4.93;;;;;;;;;;4971963;28;20081;-69
2021/09/29 13:40:43;;;;;;;9.60;5.13;;;;;;;;;;4969277;28;20089;-66
2021/09/29 13:43:10;;;;;;;18.40;5.85;;;;;;;;;;4970288;28;20041;-70
2021/09/29 13:45:37;;;;;;;9.82;4.93;;;;;;;;;;4970353;28;20038;-67
2021/09/29 13:48:03;;;;;;;7.20;4.90;;;;;;;;;;4974142;28;20055;-71
2021/09/29 13:50:29;;;;;;;8.65;4.80;;;;;;;;;;4971583;28;20536;-67
2021/09/29 13:52:57;;;;;;;10.32;4.55;;;;;;;;;;4959234;28;20035;-66
2021/09/29 13:55:25;;;;;;;10.98;5.15;;;;;;;;;;4969982;28;20440;-68
2021/09/29 14:32:42;;;;;;;9.30;3.92;;;;;;;;;;5004407;28;20030;-70
2021/09/29 14:35:08;;;;;;;10.57;3.90;;;;;;;;;;5012054;28;20076;-70
2021/09/29 14:37:34;;;;;;;9.02;3.83;;;;;;;;;;5009393;28;20030;-70
2021/09/29 14:40:03;;;;;;;7.20;3.45;;;;;;;;;;5010281;28;20328;-83
2021/09/29 14:42:29;;;;;;;7.05;3.17;;;;;;;;;;4999039;28;20037;-80
2021/09/29 14:44:55;;;;;;;10.73;3.70;;;;;;;;;;5011876;28;20022;-76
2021/09/29 14:47:27;;;;;;;5.30;3.40;;;;;;;;;;4997102;28;20045;-87
2021/09/29 14:49:55;;;;;;;4.75;3.40;;;;;;;;;;5010729;28;21060;-73
2021/09/29 14:52:23;;;;;;;18.83;4.25;;;;;;;;;;4985792;28;20100;-75
2021/09/29 14:54:49;;;;;;;10.32;3.10;;;;;;;;;;5011224;28;20034;-72
2021/09/29 14:57:15;;;;;;;11.70;3.60;;;;;;;;;;4995123;28;20080;-79
2021/09/29 14:59:44;;;;;;;9.00;3.25;;;;;;;;;;5013682;28;20089;-77
2021/09/29 15:02:10;;;;;;;7.55;3.35;;;;;;;;;;5008826;28;20033;-77
2021/09/29 15:04:38;;;;;;;4.38;3.00;;;;;;;;;;5010130;28;20109;-76
2021/09/29 15:07:19;;;;;;;5.93;3.00;;;;;;;;;;5018312;28;20515;-81
2021/09/29 15:12:34;;;;;;;9.77;3.17;;;;;;;;;;5017747;28;20048;-78
2021/09/29 15:17:48;;;;;;;7.28;3.00;;;;;;;;;;5018366;28;20045;-78
2021/09/29 15:21:01;;;;;;;8.57;3.13;;;;;;;;;;5019492;28;20030;-79
2021/09/29 15:47:42;;;;;;;6.13;2.90;;;;;;;;;;5021298;28;20056;-72
2021/09/29 15:52:57;;;;;;;9.20;3.45;;;;;;;;;;5017027;28;20030;-73
2021/09/29 15:55:33;;;;;;;8.13;3.25;;;;;;;;;;5026724;28;20030;-75
2021/09/29 16:05:30;;;;;;;9.85;3.28;;;;;;;;;;5016108;28;20083;-72
2021/09/29 16:31:26;;;;;;;8.23;3.75;;;;;;;;;;5018555;28;20033;-74
2021/09/29 16:33:59;;;;;;;10.15;3.97;;;;;;;;;;5019562;28;20022;-74
2021/09/29 16:36:25;;;;;;;7.07;3.95;;;;;;;;;;5013079;28;20064;-75
2021/09/29 16:38:51;;;;;;;7.07;3.75;;;;;;;;;;5011820;28;20029;-70
2021/09/29 16:41:18;;;;;;;6.30;3.85;;;;;;;;;;5011789;28;20022;-69
2021/09/29 16:43:45;;;;;;;12.70;4.18;;;;;;;;;;4992120;28;20404;-69
2021/09/29 16:46:14;;;;;;;8.02;4.45;;;;;;;;;;5012703;28;20084;-71
2021/09/29 16:48:40;;;;;;;9.77;3.95;;;;;;;;;;5014949;28;20022;-70
2021/09/29 16:53:44;;;;;;;11.48;4.32;;;;;;;;;;5011497;28;20034;-73
2021/09/29 16:56:12;;;;;;;10.32;4.65;;;;;;;;;;5013097;28;20038;-67
2021/09/29 16:58:59;;;;;;;15.80;5.15;;;;;;;;;;5014990;28;20076;-68
2021/09/29 17:01:28;;;;;;;7.50;4.65;;;;;;;;;;5010060;28;20480;-70
2021/09/29 17:03:56;;;;;;;9.98;4.93;;;;;;;;;;5013490;28;20034;-69
2021/09/29 17:06:23;;;;;;;9.63;5.07;;;;;;;;;;5005942;28;20025;-68
2021/09/29 17:08:49;;;;;;;22.27;5.28;;;;;;;;;;5014222;28;20024;-70
2021/09/29 17:11:16;;;;;;;9.60;5.20;;;;;;;;;;5011451;28;20041;-70
2021/09/29 17:13:43;;;;;;;9.15;5.03;;;;;;;;;;5013564;28;20030;-67
2021/09/29 17:16:18;;;;;;;10.95;5.10;;;;;;;;;;5007201;28;20022;-69
2021/09/29 17:18:45;;;;;;;10.57;5.25;;;;;;;;;;5010641;28;20092;-70
2021/09/29 17:21:18;;;;;;;9.35;5.13;;;;;;;;;;5008571;28;20028;-68
2021/09/29 17:23:44;;;;;;;10.77;5.57;;;;;;;;;;5012177;28;20029;-71
2021/09/29 17:26:11;;;;;;;9.48;5.30;;;;;;;;;;5013564;28;20057;-69
2021/09/29 17:28:38;;;;;;;9.38;5.50;;;;;;;;;;5011908;28;20057;-70
2021/09/29 17:31:08;;;;;;;7.28;5.32;;;;;;;;;;5013474;28;20026;-68
2021/09/29 17:52:33;;;;;;;7.85;6.07;;;;;;;;;;5009474;28;20169;-71
2021/09/29 17:54:59;;;;;;;13.77;6.50;;;;;;;;;;5008969;28;20038;-68
2021/09/29 17:57:28;;;;;;;10.93;6.22;;;;;;;;;;5008048;28;20026;-67
2021/09/29 17:59:57;;;;;;;18.40;6.50;;;;;;;;;;5012590;28;20394;-70
2021/09/29 18:02:41;;;;;;;20.65;7.18;;;;;;;;;;5013280;28;20029;-74
2021/09/29 18:05:13;;;;;;;9.50;6.13;;;;;;;;;;5010884;28;20048;-70
2021/09/29 18:07:40;;;;;;;11.35;6.13;;;;;;;;;;5012893;28;20018;-72
2021/09/29 18:10:07;;;;;;;12.50;6.35;;;;;;;;;;5013351;28;20044;-69
2021/09/29 18:12:33;;;;;;;13.15;6.38;;;;;;;;;;5010746;28;20433;-73
2021/09/29 18:15:00;;;;;;;35.90;7.25;;;;;;;;;;5009625;28;20042;-71
2021/09/29 18:17:28;;;;;;;9.18;6.22;;;;;;;;;;5012127;28;20029;-67
2021/09/29 18:19:54;;;;;;;9.27;6.22;;;;;;;;;;5011084;28;20061;-72
2021/09/29 18:22:20;;;;;;;10.52;6.45;;;;;;;;;;5008345;28;20018;-71
2021/09/29 18:24:46;;;;;;;12.02;6.38;;;;;;;;;;5012908;28;20032;-70
2021/09/29 18:27:13;;;;;;;8.77;6.10;;;;;;;;;;5012223;28;20028;-71
2021/09/29 18:29:39;;;;;;;11.57;6.30;;;;;;;;;;5012783;28;20042;-68
2021/09/29 18:32:05;;;;;;;13.40;6.60;;;;;;;;;;5012089;28;20026;-70
2021/09/29 18:34:34;;;;;;;8.13;6.20;;;;;;;;;;5011496;28;20030;-74
2021/09/29 18:37:02;;;;;;;16.27;6.68;;;;;;;;;;5008117;28;20476;-71
2021/09/29 18:39:28;;;;;;;8.80;6.18;;;;;;;;;;5011902;28;20152;-69
2021/09/29 18:41:54;;;;;;;13.20;6.22;;;;;;;;;;5011320;28;20026;-71
2021/09/29 18:44:21;;;;;;;11.32;6.45;;;;;;;;;;5012597;28;20365;-73
2021/09/29 18:46:47;;;;;;;12.02;6.30;;;;;;;;;;5012415;28;20077;-70
2021/09/29 18:49:15;;;;;;;11.30;6.43;;;;;;;;;;5011710;28;20037;-71
2021/09/29 18:51:44;;;;;;;13.00;7.00;;;;;;;;;;5011089;28;20364;-70
2021/09/29 19:10:11;;;;;;;13.75;6.60;;;;;;;;;;5002085;28;20391;-74
2021/09/29 19:12:37;;;;;;;11.55;6.05;;;;;;;;;;4991074;28;20050;-73